Time;durP1;ratioP1;P1;durP2;ratioP2;P2;SDS_P1;SDS_P2;PMS_P1;PMS_P2;Temp;Humidity;BMP_temperature;BMP_pressure;BME280_temperature;BME280_humidity;BME280_pressure;Samples;Min_cycle;Max_cycle;Signal;HPM_P1;HPM_P2
2021/07/23 00:01:26;;;;;;;2.85;1.52;;;;;;;14.44;66.35;99486.08;1686908;84;21074;-67
2021/07/23 00:03:52;;;;;;;;;;;;;;;14.50;66.22;99484.59;1694835;83;21569;-67
2021/07/23 00:06:19;;;;;;;4.45;1.72;;;;;;;14.48;66.28;99485.47;1702953;84;20141;-67
2021/07/23 00:08:45;;;;;;;4.72;1.40;;;;;;;14.37;66.63;99493.88;1687421;84;21105;-67
2021/07/23 00:11:11;;;;;;;;;;;;;;;14.34;66.76;99485.45;1700876;84;21003;-67
2021/07/23 00:13:38;;;;;;;5.08;1.50;;;;;;;14.37;66.65;99493.88;1705112;84;20134;-67
2021/07/23 00:16:04;;;;;;;5.40;2.00;;;;;;;14.35;66.75;99489.24;1711279;83;21017;-67
2021/07/23 00:18:31;;;;;;;;;;;;;;;14.32;66.88;99493.93;1707884;83;21082;-67
2021/07/23 00:20:57;;;;;;;5.30;1.30;;;;;;;14.29;66.99;99495.91;1706003;83;20429;-67
2021/07/23 00:23:24;;;;;;;4.12;1.72;;;;;;;14.17;67.31;99496.94;1709924;83;21042;-67
2021/07/23 00:25:50;;;;;;;3.75;1.50;;;;;;;14.16;67.36;99499.98;1695399;83;21085;-68
2021/07/23 00:28:17;;;;;;;5.80;1.70;;;;;;;14.21;67.28;99495.22;1662898;85;21133;-69
2021/07/23 00:30:44;;;;;;;4.00;1.25;;;;;;;14.21;67.28;99490.30;1687849;83;21126;-69
2021/07/23 00:33:12;;;;;;;4.50;1.80;;;;;;;14.16;67.51;99487.12;1688292;84;21663;-69
2021/07/23 00:35:38;;;;;;;2.85;1.40;;;;;;;14.11;67.61;99493.22;1691524;84;21113;-68
2021/07/23 00:38:05;;;;;;;5.53;1.55;;;;;;;14.10;67.69;99491.03;1661475;84;21093;-68
2021/07/23 00:40:34;;;;;;;3.45;1.45;;;;;;;14.10;67.67;99490.25;1662875;84;21665;-68
2021/07/23 00:43:01;;;;;;;2.72;1.60;;;;;;;14.08;67.76;99493.28;1660348;84;21046;-69
2021/07/23 00:45:27;;;;;;;;;;;;;;;14.02;67.87;99493.11;1711969;84;21066;-69
2021/07/23 00:48:01;;;;;;;5.62;1.62;;;;;;;14.00;68.04;99494.51;1688266;84;20105;-69
2021/07/23 00:50:23;;;;;;;6.95;1.77;;;;;;;13.93;68.16;99488.88;1704195;84;21625;-69
2021/07/23 00:52:50;;;;;;;4.30;1.65;;;;;;;13.94;67.97;99489.69;1695794;84;21054;-69
2021/07/23 00:55:17;;;;;;;3.80;1.65;;;;;;;13.94;68.00;99484.22;1683186;84;21034;-69
2021/07/23 00:57:45;;;;;;;4.42;1.98;;;;;;;13.90;68.17;99491.39;1714080;84;21035;-70
2021/07/23 01:00:14;;;;;;;6.80;1.95;;;;;;;13.87;68.30;99488.71;1659346;85;21040;-67
2021/07/23 01:02:48;;;;;;;6.45;1.82;;;;;;;13.89;68.26;99485.11;1688332;84;21031;-67
2021/07/23 01:05:15;;;;;;;4.70;1.80;;;;;;;13.88;68.30;99491.71;1684113;84;21094;-67
2021/07/23 01:07:42;;;;;;;9.20;1.80;;;;;;;13.82;68.50;99491.52;1714231;84;21557;-67
2021/07/23 01:10:10;;;;;;;5.30;1.85;;;;;;;13.76;68.69;99495.45;1706009;84;21444;-67
2021/07/23 01:12:38;;;;;;;3.83;1.77;;;;;;;13.76;68.74;99496.83;1682732;84;21077;-67
2021/07/23 01:15:06;;;;;;;5.25;2.25;;;;;;;13.77;68.74;99497.64;1683246;85;21535;-67
2021/07/23 01:17:33;;;;;;;5.10;1.98;;;;;;;13.73;68.84;99485.66;1681080;85;21065;-67
2021/07/23 01:20:12;;;;;;;4.72;1.77;;;;;;;13.68;68.98;99486.55;1677358;84;21062;-67
2021/07/23 01:22:40;;;;;;;4.62;1.67;;;;;;;13.64;69.04;99486.88;1639194;86;21050;-67
2021/07/23 01:25:09;;;;;;;5.60;1.80;;;;;;;13.63;68.95;99488.02;1691283;84;20989;-67
2021/07/23 01:27:42;;;;;;;5.42;1.85;;;;;;;13.64;68.83;99485.52;1700663;84;21684;-67
2021/07/23 01:30:09;;;;;;;6.80;2.02;;;;;;;13.65;68.92;99484.97;1676061;84;21070;-67
2021/07/23 01:32:37;;;;;;;4.92;2.12;;;;;;;13.61;68.94;99478.46;1658495;84;21099;-67
2021/07/23 01:35:06;;;;;;;5.83;2.20;;;;;;;13.60;68.96;99483.14;1673649;84;20989;-67
2021/07/23 01:37:33;;;;;;;4.17;1.87;;;;;;;13.64;68.86;99488.83;1671710;84;21116;-67
2021/07/23 01:40:00;;;;;;;4.17;2.12;;;;;;;13.65;68.80;99487.16;1685127;84;20978;-67
2021/07/23 01:42:27;;;;;;;5.78;2.02;;;;;;;13.61;68.79;99480.64;1680653;84;21600;-67
2021/07/23 01:44:54;;;;;;;9.38;2.70;;;;;;;13.55;68.93;99481.84;1656442;85;21009;-67
2021/07/23 01:47:21;;;;;;;6.58;2.27;;;;;;;13.55;68.93;99477.74;1709876;82;21056;-67
2021/07/23 01:49:48;;;;;;;6.17;2.30;;;;;;;13.58;68.85;99478.52;1717669;82;21008;-67
2021/07/23 01:52:16;;;;;;;5.28;2.10;;;;;;;13.57;68.88;99481.56;1726307;82;21008;-67
2021/07/23 01:54:50;;;;;;;8.50;2.37;;;;;;;13.50;69.04;99485.23;1718683;82;21027;-67
2021/07/23 01:57:18;;;;;;;4.70;2.20;;;;;;;13.46;69.17;99483.05;1731845;82;21079;-67
2021/07/23 01:59:47;;;;;;;6.20;2.40;;;;;;;13.49;69.15;99487.14;1725855;82;21019;-67
2021/07/23 02:02:13;;;;;;;;;;;;;;;13.49;69.10;99484.96;1716045;82;21135;-67
2021/07/23 02:04:41;;;;;;;4.75;2.40;;;;;;;13.42;69.22;99484.78;1709791;82;20137;-67
2021/07/23 02:07:08;;;;;;;4.17;2.10;;;;;;;13.28;69.53;99488.00;1709616;82;21062;-67
2021/07/23 02:09:34;;;;;;;5.47;2.05;;;;;;;13.26;69.62;99481.18;1725936;82;21536;-67
2021/07/23 02:12:03;;;;;;;5.40;2.17;;;;;;;13.31;69.57;99489.33;1704165;84;21696;-67
2021/07/23 02:14:45;;;;;;;4.33;2.10;;;;;;;13.32;69.56;99481.39;1711548;82;21623;-67
2021/07/23 02:17:13;;;;;;;4.45;2.02;;;;;;;13.28;69.64;99483.09;1716808;82;21102;-67
2021/07/23 02:19:40;;;;;;;6.72;2.37;;;;;;;13.24;69.87;99479.31;1726979;82;21059;-67
2021/07/23 02:22:08;;;;;;;4.60;2.02;;;;;;;13.25;69.96;99483.09;1642924;86;21186;-67
2021/07/23 02:24:35;;;;;;;5.05;2.05;;;;;;;13.28;69.84;99483.09;1731133;82;20968;-67
2021/07/23 02:27:03;;;;;;;5.15;1.98;;;;;;;13.29;69.81;99484.69;1731059;82;21653;-67
2021/07/23 02:29:30;;;;;;;3.20;2.00;;;;;;;13.24;69.96;99487.52;1636030;86;21027;-67
2021/07/23 02:31:57;;;;;;;4.75;1.95;;;;;;;13.18;70.22;99488.13;1700440;83;21106;-67
2021/07/23 02:34:24;;;;;;;5.42;1.80;;;;;;;13.17;70.39;99483.78;1684906;84;21686;-67
2021/07/23 02:36:52;;;;;;;4.92;1.85;;;;;;;13.20;70.42;99489.20;1687747;84;21146;-67
2021/07/23 02:39:20;;;;;;;8.10;2.30;;;;;;;13.20;70.48;99485.92;1724696;82;20997;-67
2021/07/23 02:41:48;;;;;;;4.72;1.80;;;;;;;13.17;70.79;99482.97;1650277;86;21976;-67
2021/07/23 02:44:15;;;;;;;6.28;2.10;;;;;;;13.09;71.29;99485.80;1652532;86;20989;-66
2021/07/23 02:46:41;;;;;;;4.95;1.90;;;;;;;13.08;71.75;99487.41;1688135;84;21471;-66
2021/07/23 02:49:09;;;;;;;4.78;1.75;;;;;;;13.08;71.93;99493.70;1694392;84;21508;-66
2021/07/23 02:51:37;;;;;;;6.95;2.08;;;;;;;13.10;72.10;99493.45;1677620;84;21568;-67
2021/07/23 02:54:05;;;;;;;5.60;2.00;;;;;;;13.07;72.40;99490.73;1722747;82;21500;-68
2021/07/23 02:56:31;;;;;;;5.47;1.85;;;;;;;13.07;72.74;99490.73;1694700;82;21047;-69
2021/07/23 02:58:58;;;;;;;5.65;2.10;;;;;;;13.10;72.77;99489.34;1716538;82;20999;-69
2021/07/23 03:01:25;;;;;;;;;;;;;;;13.14;72.68;99491.76;1734148;82;21372;-69
2021/07/23 03:03:52;;;;;;;6.12;2.17;;;;;;;13.17;72.70;99488.43;1729884;82;20127;-69
2021/07/23 03:06:20;;;;;;;4.85;1.60;;;;;;;13.08;72.85;99498.34;1712996;82;21090;-69
2021/07/23 03:08:48;;;;;;;6.65;2.33;;;;;;;13.08;72.84;99497.80;1647418;86;21130;-69
2021/07/23 03:11:15;;;;;;;5.35;2.10;;;;;;;13.15;72.55;99485.98;1726583;82;21023;-69
2021/07/23 03:13:48;;;;;;;5.95;2.00;;;;;;;13.24;72.32;99490.25;1636887;86;21090;-67
2021/07/23 03:16:15;;;;;;;5.08;2.12;;;;;;;13.27;72.11;99482.27;1686939;84;21090;-67
2021/07/23 03:18:43;;;;;;;4.22;2.05;;;;;;;13.30;71.90;99489.87;1710130;82;21063;-67
2021/07/23 03:21:10;;;;;;;9.93;1.82;;;;;;;13.41;71.58;99491.91;1646259;86;21565;-67
2021/07/23 03:23:37;;;;;;;;;;;;;;;13.51;71.25;99490.93;1717296;82;21059;-67
2021/07/23 03:26:07;;;;;;;5.75;2.22;;;;;;;13.57;71.16;99491.92;1722063;82;20457;-67
2021/07/23 03:28:36;;;;;;;7.83;2.37;;;;;;;13.55;70.97;99491.97;1730541;82;21047;-67
2021/07/23 03:31:04;;;;;;;5.62;2.33;;;;;;;13.65;70.65;99489.06;1732562;81;21487;-67
2021/07/23 03:33:32;;;;;;;5.17;2.22;;;;;;;13.76;70.35;99494.09;1678059;84;21220;-67
2021/07/23 03:36:01;;;;;;;7.30;2.75;;;;;;;13.85;70.07;99492.28;1685540;84;21056;-67
2021/07/23 03:38:27;;;;;;;;;;;;;;;13.92;69.86;99494.66;1697748;84;21107;-67
2021/07/23 03:40:55;;;;;;;5.05;1.90;;;;;;;14.05;69.87;99491.14;1684329;84;20141;-67
2021/07/23 03:43:24;;;;;;;6.42;1.87;;;;;;;14.23;69.81;99490.83;1689106;84;21031;-67
2021/07/23 03:45:55;;;;;;;6.97;1.80;;;;;;;14.47;69.79;99492.05;1730278;82;21403;-67
2021/07/23 03:48:21;;;;;;;9.38;1.70;;;;;;;14.70;68.93;99490.48;1753073;82;21026;-67
2021/07/23 03:50:48;;;;;;;6.67;2.02;;;;;;;14.89;68.08;99489.82;1702259;82;20948;-67
2021/07/23 03:53:16;;;;;;;3.85;1.62;;;;;;;15.09;67.34;99494.05;1720791;82;21027;-67
2021/07/23 03:55:45;;;;;;;5.05;1.80;;;;;;;15.29;66.56;99495.55;1728391;82;20975;-67
2021/07/23 03:58:14;;;;;;;6.42;1.72;;;;;;;15.43;66.11;99491.66;1738971;82;21594;-67
2021/07/23 04:00:41;;;;;;;4.85;1.80;;;;;;;15.60;65.39;99493.76;1743787;82;20999;-67
2021/07/23 04:03:07;;;;;;;;;;;;;;;15.77;65.09;99496.63;1752660;82;21448;-67
2021/07/23 04:05:34;;;;;;;4.07;1.60;;;;;;;15.97;64.59;99491.22;1737073;82;20128;-67
2021/07/23 04:08:03;;;;;;;6.28;1.77;;;;;;;16.07;63.91;99489.58;1743864;82;21102;-67
2021/07/23 04:10:31;;;;;;;4.92;1.87;;;;;;;16.17;63.49;99494.81;1721335;82;21035;-67
2021/07/23 04:12:57;;;;;;;;;;;;;;;16.29;63.45;99501.10;1726914;82;21095;-67
2021/07/23 04:15:24;;;;;;;4.12;1.60;;;;;;;16.48;63.89;99500.85;1724898;82;20156;-67
2021/07/23 04:17:55;;;;;;;5.55;1.80;;;;;;;16.70;64.32;99495.33;1720861;82;21602;-67
2021/07/23 04:20:23;;;;;;;4.90;1.62;;;;;;;16.97;63.04;99498.42;1668764;85;21055;-67
2021/07/23 04:22:50;;;;;;;6.53;1.80;;;;;;;17.13;62.80;99487.20;1683152;82;21090;-67
2021/07/23 04:25:21;;;;;;;4.37;1.30;;;;;;;17.34;62.39;99489.02;1753214;82;21039;-66
2021/07/23 04:27:48;;;;;;;6.53;2.00;;;;;;;17.58;61.68;99491.89;1743496;82;21042;-66
2021/07/23 04:30:17;;;;;;;4.35;1.57;;;;;;;17.76;61.05;99491.57;1751192;82;21035;-66
2021/07/23 04:33:01;;;;;;;5.53;1.57;;;;;;;18.01;61.16;99487.73;1729599;82;21087;-66
2021/07/23 04:35:28;;;;;;;6.05;1.90;;;;;;;18.28;60.56;99489.53;1659170;86;21047;-66
2021/07/23 04:37:55;;;;;;;6.67;1.67;;;;;;;18.44;59.24;99489.00;1714916;82;21142;-66
2021/07/23 04:40:23;;;;;;;3.90;1.50;;;;;;;18.49;59.08;99488.84;1709089;82;21070;-67
2021/07/23 04:42:50;;;;;;;4.22;1.45;;;;;;;18.60;58.54;99486.00;1712698;82;21067;-66
2021/07/23 04:45:17;;;;;;;9.60;1.57;;;;;;;18.67;58.39;99483.53;1663704;86;22203;-67
2021/07/23 04:47:45;;;;;;;7.35;1.60;;;;;;;18.72;58.10;99480.00;1712006;82;21033;-66
2021/07/23 04:50:11;;;;;;;4.37;1.30;;;;;;;18.76;57.69;99474.63;1736510;82;20948;-67
2021/07/23 04:52:56;;;;;;;7.15;1.40;;;;;;;18.86;57.63;99479.20;1722025;82;21492;-66
2021/07/23 04:55:36;;;;;;;3.25;1.45;;;;;;;18.91;58.14;99478.22;1735859;82;21025;-66
2021/07/23 04:58:14;;;;;;;3.95;1.30;;;;;;;19.11;58.05;99480.77;1738460;82;21044;-67
2021/07/23 05:00:40;;;;;;;7.00;1.60;;;;;;;19.27;57.02;99476.30;1737710;82;21081;-67
2021/07/23 05:03:06;;;;;;;;;;;;;;;19.39;56.41;99474.41;1716622;82;21027;-66
2021/07/23 05:05:33;;;;;;;4.33;1.37;;;;;;;19.60;55.50;99473.05;1733996;82;20142;-66
2021/07/23 05:08:00;;;;;;;4.05;1.40;;;;;;;19.59;55.08;99470.04;1712555;82;21282;-67
2021/07/23 05:10:27;;;;;;;4.62;1.40;;;;;;;19.62;55.22;99480.44;1659916;86;21558;-66
2021/07/23 05:12:54;;;;;;;5.58;1.00;;;;;;;19.70;54.98;99475.39;1726671;82;21067;-66
2021/07/23 05:15:22;;;;;;;2.67;1.02;;;;;;;19.88;54.93;99483.76;1725252;82;20988;-67
2021/07/23 05:17:49;;;;;;;5.85;1.37;;;;;;;20.09;54.75;99489.81;1655436;86;21082;-66
2021/07/23 05:20:16;;;;;;;4.28;1.12;;;;;;;20.26;55.04;99488.28;1688695;84;21023;-66
2021/07/23 05:22:43;;;;;;;3.90;1.50;;;;;;;20.43;53.35;99488.68;1661236;86;21095;-67
2021/07/23 05:25:11;;;;;;;3.65;1.12;;;;;;;20.53;53.07;99494.58;1730845;82;21020;-66
2021/07/23 05:27:37;;;;;;;3.00;1.07;;;;;;;20.66;53.14;99494.81;1675712;84;21087;-67
2021/07/23 05:30:05;;;;;;;4.22;1.35;;;;;;;20.88;52.40;99484.45;1716391;82;21466;-67
2021/07/23 05:32:32;;;;;;;3.40;1.02;;;;;;;21.08;51.74;99487.09;1742190;81;21054;-67
2021/07/23 05:34:58;;;;;;;3.72;1.17;;;;;;;21.39;52.01;99474.06;1727512;82;21038;-67
2021/07/23 05:37:25;;;;;;;3.33;1.02;;;;;;;21.70;50.48;99483.89;1718173;82;21114;-67
2021/07/23 05:39:53;;;;;;;8.15;1.20;;;;;;;21.88;50.02;99486.36;1705100;82;21021;-67
2021/07/23 05:42:19;;;;;;;2.30;1.10;;;;;;;21.97;49.26;99480.11;1729728;82;21089;-67
2021/07/23 05:44:45;;;;;;;2.77;1.00;;;;;;;21.96;48.56;99476.56;1726665;82;21091;-68
2021/07/23 05:47:12;;;;;;;3.52;1.05;;;;;;;21.96;48.91;99478.52;1737600;82;21059;-67
2021/07/23 05:49:39;;;;;;;4.53;1.07;;;;;;;22.02;48.10;99472.36;1725504;82;21596;-68
2021/07/23 05:52:06;;;;;;;6.92;1.40;;;;;;;22.15;49.07;99468.94;1715203;82;21122;-68
2021/07/23 05:54:32;;;;;;;3.08;0.90;;;;;;;22.43;48.45;99473.04;1720002;82;21475;-68
2021/07/23 05:56:59;;;;;;;2.92;0.85;;;;;;;22.66;47.53;99474.05;1705409;82;21108;-68
2021/07/23 05:59:26;;;;;;;2.87;1.20;;;;;;;22.79;46.76;99479.75;1720460;82;21517;-68
2021/07/23 06:01:52;;;;;;;3.65;1.10;;;;;;;22.84;46.59;99474.52;1669636;85;21101;-67
2021/07/23 06:04:18;;;;;;;3.98;1.30;;;;;;;22.95;47.20;99478.36;1720709;82;20955;-68
2021/07/23 06:06:45;;;;;;;2.35;0.80;;;;;;;23.08;47.16;99477.89;1717784;83;21007;-68
2021/07/23 06:09:13;;;;;;;4.55;0.80;;;;;;;23.16;45.81;99478.87;1719492;82;21017;-67
2021/07/23 06:11:39;;;;;;;2.55;0.90;;;;;;;23.18;45.72;99475.94;1736462;82;21021;-66
2021/07/23 06:14:07;;;;;;;2.27;0.90;;;;;;;23.30;45.51;99472.25;1729999;82;21004;-67
2021/07/23 06:16:33;;;;;;;3.92;1.10;;;;;;;23.40;44.74;99474.45;1718270;82;21043;-67
2021/07/23 06:19:00;;;;;;;6.22;1.10;;;;;;;23.38;43.89;99476.80;1729726;82;21122;-66
2021/07/23 06:21:27;;;;;;;3.45;0.85;;;;;;;23.37;44.58;99481.32;1705493;82;21003;-66
2021/07/23 06:23:53;;;;;;;3.45;1.00;;;;;;;23.37;44.70;99478.54;1725358;82;21007;-67
2021/07/23 06:26:20;;;;;;;3.27;0.90;;;;;;;23.50;44.52;99482.83;1721769;81;21051;-68
2021/07/23 06:28:47;;;;;;;3.75;0.90;;;;;;;23.62;44.37;99480.73;1744094;82;21516;-68
2021/07/23 06:31:14;;;;;;;2.67;0.90;;;;;;;23.69;43.50;99487.02;1731346;82;21094;-68
2021/07/23 06:33:41;;;;;;;2.98;1.50;;;;;;;23.82;44.18;99475.97;1706593;82;21044;-66
2021/07/23 06:36:08;;;;;;;3.85;0.82;;;;;;;24.13;44.14;99477.22;1733094;82;21052;-69
2021/07/23 06:38:34;;;;;;;4.33;1.00;;;;;;;24.23;43.12;99475.22;1721582;82;21071;-68
2021/07/23 06:41:03;;;;;;;3.80;1.10;;;;;;;24.29;42.67;99468.79;1641780;86;21059;-68
2021/07/23 06:43:29;;;;;;;5.40;1.10;;;;;;;24.29;42.67;99468.79;1696386;84;21082;-68
2021/07/23 06:45:56;;;;;;;2.85;0.70;;;;;;;24.30;42.81;99465.42;1712764;82;20992;-67
2021/07/23 06:48:23;;;;;;;5.45;1.00;;;;;;;24.27;42.02;99469.72;1718026;81;21072;-68
2021/07/23 06:50:49;;;;;;;3.27;0.80;;;;;;;24.27;42.02;99469.72;1722121;82;21494;-67
2021/07/23 06:53:17;;;;;;;1.90;0.75;;;;;;;24.28;42.96;99467.98;1729804;82;21107;-67
2021/07/23 06:55:43;;;;;;;4.83;0.90;;;;;;;24.27;42.50;99471.92;1714539;82;20980;-67
2021/07/23 06:58:10;;;;;;;5.28;1.80;;;;;;;24.29;42.89;99468.79;1714387;82;21114;-67
2021/07/23 07:00:37;;;;;;;4.83;1.20;;;;;;;24.63;43.24;99472.56;1711949;82;21012;-67
2021/07/23 07:03:07;;;;;;;4.47;1.30;;;;;;;24.88;41.58;99463.26;1653199;86;21027;-67
2021/07/23 07:05:34;;;;;;;12.30;4.60;;;;;;;25.04;40.02;99468.11;1721252;81;20950;-68
2021/07/23 07:08:00;;;;;;;4.78;1.30;;;;;;;25.01;40.42;99470.25;1726205;81;21059;-68
2021/07/23 07:10:27;;;;;;;1.98;0.80;;;;;;;25.01;40.02;99466.08;1721566;82;21540;-68
2021/07/23 07:12:58;;;;;;;4.35;1.07;;;;;;;25.06;40.18;99464.34;1709457;84;21032;-68
2021/07/23 07:15:25;;;;;;;4.60;1.00;;;;;;;25.11;40.27;99466.82;1713596;82;21105;-67
2021/07/23 07:17:59;;;;;;;3.80;0.80;;;;;;;25.21;41.48;99462.80;1723237;82;21915;-68
2021/07/23 07:20:25;;;;;;;2.45;0.60;;;;;;;25.38;39.42;99464.81;1728260;81;20968;-68
2021/07/23 07:22:53;;;;;;;3.08;0.65;;;;;;;25.34;38.94;99455.01;1649207;86;21599;-68
2021/07/23 07:25:24;;;;;;;4.90;1.02;;;;;;;25.41;39.31;99463.47;1671176;84;20993;-69
2021/07/23 07:27:50;;;;;;;5.10;1.25;;;;;;;25.38;38.09;99464.23;1729597;82;21945;-68
2021/07/23 07:30:16;;;;;;;2.37;0.55;;;;;;;25.34;38.31;99463.37;1734265;82;21035;-67
2021/07/23 07:32:43;;;;;;;3.10;0.90;;;;;;;25.33;37.84;99469.33;1665168;84;21085;-68
2021/07/23 07:35:10;;;;;;;2.20;0.68;;;;;;;25.29;37.63;99465.69;1673393;84;21090;-69
2021/07/23 07:37:37;;;;;;;3.58;1.10;;;;;;;25.07;37.69;99466.77;1694765;84;21082;-67
2021/07/23 07:40:05;;;;;;;3.75;0.70;;;;;;;24.82;37.59;99459.97;1702301;84;21038;-68
2021/07/23 07:42:32;;;;;;;3.67;0.75;;;;;;;24.68;38.66;99466.69;1698709;84;21085;-68
2021/07/23 07:44:59;;;;;;;3.55;0.82;;;;;;;24.70;37.85;99465.14;1705072;84;21081;-67
2021/07/23 07:47:25;;;;;;;2.98;0.60;;;;;;;24.66;38.05;99457.89;1688627;84;21208;-68
2021/07/23 07:49:51;;;;;;;4.80;0.68;;;;;;;24.71;37.98;99463.16;1705846;84;21523;-68
2021/07/23 07:52:19;;;;;;;1.95;0.70;;;;;;;24.82;38.23;99458.58;1692055;84;21070;-68
2021/07/23 07:54:46;;;;;;;6.28;1.95;;;;;;;24.92;38.07;99457.16;1688277;84;21003;-68
2021/07/23 07:57:12;;;;;;;7.25;2.25;;;;;;;25.15;39.35;99460.72;1694711;84;21815;-68
2021/07/23 07:59:39;;;;;;;6.50;1.80;;;;;;;25.39;38.38;99463.64;1691789;84;21046;-69
2021/07/23 08:02:09;;;;;;;7.70;1.90;;;;;;;25.43;37.41;99456.14;1685619;84;21604;-69
2021/07/23 08:04:36;;;;;;;21.97;7.42;;;;;;;25.42;37.86;99467.06;1688095;84;21458;-69
2021/07/23 08:07:13;;;;;;;16.62;4.60;;;;;;;25.38;37.43;99467.59;1694439;84;21074;-68
2021/07/23 08:09:52;;;;;;;7.95;2.65;;;;;;;25.44;36.93;99466.89;1693458;84;21545;-69
2021/07/23 08:12:20;;;;;;;6.22;1.17;;;;;;;25.58;35.62;99454.57;1688488;84;21002;-68
2021/07/23 08:14:46;;;;;;;7.12;2.30;;;;;;;25.58;35.62;99454.57;1698970;84;20975;-70
2021/07/23 08:17:13;;;;;;;1.82;0.68;;;;;;;25.53;37.21;99472.22;1667366;85;21023;-69
2021/07/23 08:19:40;;;;;;;2.77;0.72;;;;;;;25.51;36.40;99468.41;1660519;85;21013;-68
2021/07/23 08:22:06;;;;;;;1.67;0.88;;;;;;;25.53;35.72;99464.67;1694852;84;21549;-68
2021/07/23 08:24:34;;;;;;;2.60;0.82;;;;;;;25.60;35.71;99471.73;1669632;85;21541;-67
2021/07/23 08:27:01;;;;;;;3.83;0.65;;;;;;;25.65;36.68;99470.58;1677323;84;20990;-68
2021/07/23 08:29:27;;;;;;;3.62;0.80;;;;;;;25.88;37.06;99464.31;1689064;85;21014;-68
2021/07/23 08:31:53;;;;;;;1.40;0.60;;;;;;;25.98;35.99;99462.23;1690349;84;21105;-67
2021/07/23 08:34:19;;;;;;;1.52;0.60;;;;;;;26.04;35.81;99469.69;1683451;84;21479;-68
2021/07/23 08:36:46;;;;;;;2.37;0.75;;;;;;;26.02;35.37;99468.66;1680279;85;21517;-68
2021/07/23 08:39:13;;;;;;;2.58;0.70;;;;;;;25.86;36.17;99467.28;1734146;82;20988;-68
2021/07/23 08:41:39;;;;;;;2.37;0.68;;;;;;;25.90;36.74;99465.34;1726568;82;20996;-68
2021/07/23 08:44:06;;;;;;;4.00;0.75;;;;;;;26.07;35.59;99453.58;1717386;82;21474;-69
2021/07/23 08:46:33;;;;;;;4.28;1.07;;;;;;;26.17;35.45;99466.28;1737267;82;21028;-68
2021/07/23 08:49:00;;;;;;;5.15;0.90;;;;;;;26.08;34.77;99460.16;1732088;82;21039;-68
2021/07/23 08:51:26;;;;;;;1.98;0.70;;;;;;;26.04;36.41;99460.70;1712446;82;20964;-69
2021/07/23 08:53:52;;;;;;;3.27;0.78;;;;;;;26.09;35.50;99459.56;1733068;82;21007;-68
2021/07/23 08:56:19;;;;;;;2.83;0.68;;;;;;;26.07;36.05;99462.75;1733721;82;21035;-68
2021/07/23 08:58:45;;;;;;;5.72;0.90;;;;;;;26.20;35.86;99457.14;1711279;83;21510;-68
2021/07/23 09:01:11;;;;;;;2.55;0.80;;;;;;;26.31;34.84;99453.06;1630443;85;21063;-69
2021/07/23 09:03:38;;;;;;;2.45;0.90;;;;;;;26.43;34.56;99456.17;1729692;81;21574;-68
2021/07/23 09:06:18;;;;;;;5.90;1.00;;;;;;;26.39;34.41;99461.73;1713104;82;21078;-69
2021/07/23 09:08:50;;;;;;;3.77;0.90;;;;;;;26.07;35.07;99458.57;1710870;82;21131;-68
2021/07/23 09:11:27;;;;;;;4.87;1.22;;;;;;;25.76;35.99;99456.19;1733298;82;21488;-68
2021/07/23 09:14:13;;;;;;;1.85;0.68;;;;;;;25.63;35.82;99461.80;1735759;82;20948;-68
2021/07/23 09:16:39;;;;;;;2.80;0.68;;;;;;;25.59;35.25;99456.19;1661173;86;21031;-69
2021/07/23 09:19:09;;;;;;;2.70;0.82;;;;;;;25.65;35.47;99452.45;1725650;82;21444;-69
2021/07/23 09:21:40;;;;;;;4.35;1.12;;;;;;;25.79;36.40;99448.45;1719050;82;20951;-69
2021/07/23 09:24:07;;;;;;;3.72;0.80;;;;;;;25.98;36.92;99444.11;1726133;81;21015;-67
2021/07/23 09:26:43;;;;;;;2.12;0.72;;;;;;;26.11;35.81;99449.63;1649597;86;21023;-68
2021/07/23 09:29:10;;;;;;;2.58;0.90;;;;;;;25.93;36.46;99448.66;1723042;82;21031;-68
2021/07/23 09:31:37;;;;;;;4.55;0.72;;;;;;;25.83;36.56;99447.91;1723252;82;20968;-68
2021/07/23 09:34:04;;;;;;;8.88;3.62;;;;;;;25.95;37.01;99443.48;1663047;84;21043;-68
2021/07/23 09:36:31;;;;;;;2.80;1.07;;;;;;;26.23;36.97;99445.21;1679396;84;21477;-68
2021/07/23 09:39:07;;;;;;;4.55;0.93;;;;;;;26.54;36.68;99435.53;1666483;86;21097;-68
2021/07/23 09:41:34;;;;;;;4.33;0.85;;;;;;;26.71;35.32;99431.30;1665026;86;21015;-69
2021/07/23 09:44:08;;;;;;;3.30;0.90;;;;;;;26.71;34.93;99439.68;1718926;83;21112;-69
2021/07/23 09:46:35;;;;;;;1.72;0.70;;;;;;;26.56;34.76;99432.36;1696269;84;20978;-67
2021/07/23 09:49:22;;;;;;;4.55;1.02;;;;;;;26.50;34.19;99421.36;1691747;84;21011;-67
2021/07/23 09:51:49;;;;;;;4.12;1.00;;;;;;;26.39;34.79;99432.42;1663835;85;21032;-68
2021/07/23 09:54:15;;;;;;;2.83;0.80;;;;;;;26.13;34.60;99423.56;1658003;86;20998;-68
2021/07/23 09:56:43;;;;;;;2.87;0.85;;;;;;;25.99;35.42;99426.20;1673269;85;20981;-68
2021/07/23 09:59:11;;;;;;;4.17;0.82;;;;;;;26.00;35.30;99428.40;1669991;85;21064;-67
2021/07/23 10:01:41;;;;;;;4.25;0.70;;;;;;;26.04;34.88;99425.84;1663574;86;20986;-70
2021/07/23 10:04:15;;;;;;;1.95;0.80;;;;;;;26.12;34.49;99416.37;1677911;85;21481;-69
2021/07/23 10:07:00;;;;;;;2.35;0.80;;;;;;;26.19;34.61;99409.50;1667127;84;20970;-66
2021/07/23 10:09:27;;;;;;;3.00;0.72;;;;;;;26.21;36.10;99418.30;1668438;85;21018;-68
2021/07/23 10:11:54;;;;;;;4.37;0.80;;;;;;;26.25;35.58;99403.58;1659587;86;21570;-68
2021/07/23 10:14:22;;;;;;;1.82;0.70;;;;;;;26.39;36.54;99412.08;1681106;84;21000;-68
2021/07/23 10:16:51;;;;;;;2.10;0.95;;;;;;;26.59;35.18;99405.87;1699207;84;21677;-68
2021/07/23 10:19:21;;;;;;;2.85;1.07;;;;;;;26.73;36.31;99408.78;1672560;85;21084;-67
2021/07/23 10:21:48;;;;;;;6.30;0.95;;;;;;;26.81;34.61;99406.04;1676694;85;21563;-68
2021/07/23 10:24:16;;;;;;;2.58;0.62;;;;;;;26.68;34.62;99404.94;1666479;86;21014;-66
2021/07/23 10:26:42;;;;;;;5.20;0.90;;;;;;;26.51;34.34;99403.40;1663981;85;21018;-68
2021/07/23 10:29:09;;;;;;;2.45;0.93;;;;;;;26.37;35.84;99403.28;1685527;84;21010;-68
2021/07/23 10:31:39;;;;;;;3.33;1.00;;;;;;;26.35;35.50;99402.88;1690566;84;21015;-67
2021/07/23 10:34:10;;;;;;;2.00;0.90;;;;;;;26.38;34.52;99394.53;1688481;84;21042;-68
2021/07/23 10:36:37;;;;;;;2.45;1.00;;;;;;;26.40;34.62;99390.75;1732945;82;21012;-67
2021/07/23 10:39:10;;;;;;;3.50;1.00;;;;;;;26.46;35.23;99393.41;1736767;82;20991;-66
2021/07/23 10:41:38;;;;;;;2.62;0.80;;;;;;;26.52;36.02;99393.26;1729353;82;21546;-67
2021/07/23 10:44:31;;;;;;;2.52;0.98;;;;;;;26.62;36.42;99393.13;1719121;82;21154;-69
2021/07/23 10:47:00;;;;;;;2.20;1.02;;;;;;;26.71;35.67;99397.18;1740822;82;21031;-68
2021/07/23 10:49:35;;;;;;;2.00;0.90;;;;;;;26.64;34.87;99388.75;1745680;82;21011;-68
2021/07/23 10:52:04;;;;;;;2.60;1.00;;;;;;;26.74;34.87;99390.04;1719398;82;21047;-68
2021/07/23 10:54:33;;;;;;;1.80;0.93;;;;;;;26.85;35.35;99385.37;1678807;84;21598;-68
2021/07/23 10:57:05;;;;;;;4.58;1.40;;;;;;;27.05;35.39;99388.08;1690675;84;21215;-68
2021/07/23 10:59:48;;;;;;;4.35;1.30;;;;;;;27.15;34.37;99385.13;1682761;85;21027;-68
2021/07/23 11:02:21;;;;;;;3.05;1.37;;;;;;;27.02;34.68;99384.67;1690610;84;21011;-68
2021/07/23 11:04:48;;;;;;;2.80;1.40;;;;;;;26.90;34.34;99381.38;1711621;84;21081;-69
2021/07/23 11:07:16;;;;;;;3.22;1.70;;;;;;;26.77;33.59;99383.67;1694345;84;21047;-68
2021/07/23 11:09:44;;;;;;;6.47;1.50;;;;;;;26.68;33.60;99374.23;1696648;82;20976;-68
2021/07/23 11:12:20;;;;;;;5.65;1.30;;;;;;;26.61;33.46;99363.59;1718529;82;21628;-68
2021/07/23 11:14:53;;;;;;;3.00;1.40;;;;;;;26.54;35.34;99371.92;1743520;82;21035;-68
2021/07/23 11:17:19;;;;;;;3.52;1.17;;;;;;;26.53;35.35;99376.73;1726559;82;21015;-68
2021/07/23 11:19:47;;;;;;;5.05;1.67;;;;;;;26.56;34.66;99367.58;1717640;83;21571;-68
2021/07/23 11:22:15;;;;;;;4.85;1.30;;;;;;;26.63;36.18;99361.23;1725990;82;21008;-68
2021/07/23 11:24:41;;;;;;;2.90;1.25;;;;;;;26.82;35.80;99360.98;1717749;82;21074;-68
2021/07/23 11:27:07;;;;;;;3.75;1.10;;;;;;;27.10;35.89;99351.38;1733574;82;21534;-68
2021/07/23 11:29:37;;;;;;;4.22;1.35;;;;;;;27.28;34.93;99358.45;1724193;82;20987;-68
2021/07/23 11:32:09;;;;;;;2.30;1.20;;;;;;;27.17;35.89;99360.41;1744630;82;21094;-68
2021/07/23 11:34:38;;;;;;;2.85;1.17;;;;;;;27.19;35.53;99359.41;1746780;81;21042;-69
2021/07/23 11:37:26;;;;;;;3.50;1.20;;;;;;;27.38;35.20;99354.12;1726414;82;21569;-69
2021/07/23 11:39:57;;;;;;;2.27;1.15;;;;;;;27.64;35.55;99362.22;1728726;82;20998;-69
2021/07/23 11:42:37;;;;;;;3.47;1.50;;;;;;;27.63;35.48;99367.00;1749881;82;21074;-68